Represa, California
Current Conditions -  °F | °C
As of 6:46 AM on Tuesday 21 Oct 2014 (Local Time) from KMHR Reporting Station
Few Clouds Few Clouds  
Wind Chill: 46°   Ceiling: Unl
Heat Index: 46°   Visibility: 10mi
Dew Point: 46°   Wind: 3mph
Humidity: 100%   Direction: 90°E
Pressure: 30.07"   Gusts: NA
Location:  38.67°N, 121.15°W
Report Text: KMHR 211346Z 09003KT 10SM FEW011 08/08 A3007
Loading
Personal Weather Stations






























Interactive Weather Map
Tropical Storm Tracking
New forecast layout! Learn more

10-Day Weather Forecast

Advertisements
Track Severe Weather on mobile